createdAt,value
2022-08-11T00:01:27.557Z,6.05
2022-08-11T00:03:57.647Z,6.30
2022-08-11T00:06:31.320Z,5.85
2022-08-11T00:09:00.002Z,5.93
2022-08-11T00:11:36.458Z,5.68
2022-08-11T00:14:05.643Z,5.90
2022-08-11T00:16:33.762Z,5.47
2022-08-11T00:19:02.145Z,5.75
2022-08-11T00:21:54.706Z,5.88
2022-08-11T00:24:17.992Z,5.90
2022-08-11T00:26:53.397Z,5.65
2022-08-11T00:29:21.749Z,6.13
2022-08-11T00:31:52.072Z,6.28
2022-08-11T00:34:23.197Z,5.90
2022-08-11T00:36:53.916Z,6.03
2022-08-11T00:39:29.282Z,6.20
2022-08-11T00:42:04.034Z,6.20
2022-08-11T00:44:50.140Z,5.65
2022-08-11T00:47:52.401Z,5.88
2022-08-11T00:50:36.505Z,5.68
2022-08-11T00:53:28.734Z,5.93
2022-08-11T00:56:20.990Z,6.10
2022-08-11T00:59:35.223Z,6.40
2022-08-11T01:02:16.775Z,6.20
2022-08-11T01:05:02.581Z,6.18
2022-08-11T01:08:02.129Z,6.00
2022-08-11T01:10:55.453Z,5.90
2022-08-11T01:13:33.575Z,5.97
2022-08-11T01:16:33.438Z,6.15
2022-08-11T01:20:45.824Z,6.30
2022-08-11T01:22:56.535Z,6.60
2022-08-11T01:25:57.520Z,6.38
2022-08-11T01:28:52.140Z,6.72
2022-08-11T01:31:41.374Z,6.45
2022-08-11T01:34:28.159Z,6.60
2022-08-11T01:37:03.298Z,6.95
2022-08-11T01:39:46.974Z,6.90
2022-08-11T01:45:43.304Z,6.35
2022-08-11T01:48:23.322Z,7.45
2022-08-11T01:51:09.048Z,7.03
2022-08-11T01:54:05.187Z,7.32
2022-08-11T01:56:41.186Z,6.63
2022-08-11T01:59:14.765Z,6.90
2022-08-11T02:02:21.497Z,6.63
2022-08-11T02:05:00.212Z,6.78
2022-08-11T02:07:47.352Z,6.60
2022-08-11T02:10:50.601Z,7.00
2022-08-11T02:13:37.834Z,5.70
2022-08-11T02:16:27.075Z,6.50
2022-08-11T02:19:41.233Z,7.07
2022-08-11T02:23:08.998Z,6.95
2022-08-11T02:26:08.745Z,7.93
2022-08-11T02:29:12.517Z,7.00
2022-08-11T02:32:25.485Z,7.10
2022-08-11T02:35:15.093Z,6.60
2022-08-11T02:37:48.673Z,7.43
2022-08-11T02:40:42.415Z,7.65
2022-08-11T02:43:10.309Z,7.43
2022-08-11T02:46:08.073Z,7.35
2022-08-11T02:49:26.162Z,7.55
2022-08-11T02:52:20.809Z,7.22
2022-08-11T02:55:48.691Z,6.57
2022-08-11T02:58:42.814Z,7.03
2022-08-11T03:01:19.170Z,6.68
2022-08-11T03:04:02.067Z,7.13
2022-08-11T03:07:00.885Z,6.57
2022-08-11T03:09:53.824Z,7.03
2022-08-11T03:13:16.329Z,7.05
2022-08-11T03:16:08.912Z,6.97
2022-08-11T03:18:56.684Z,6.90
2022-08-11T03:22:01.649Z,8.98
2022-08-11T03:24:40.375Z,6.90
2022-08-11T03:27:34.156Z,6.33
2022-08-11T03:30:16.103Z,7.10
2022-08-11T03:33:13.340Z,6.80
2022-08-11T03:36:09.763Z,8.27
2022-08-11T03:38:49.379Z,7.35
2022-08-11T03:41:59.287Z,7.10
2022-08-11T03:44:37.343Z,6.72
2022-08-11T03:47:52.443Z,7.22
2022-08-11T03:50:58.680Z,8.55
2022-08-11T03:53:48.182Z,7.10
2022-08-11T03:56:45.480Z,6.80
2022-08-11T03:59:39.653Z,7.13
2022-08-11T04:02:31.911Z,7.63
2022-08-11T04:05:18.220Z,7.18
2022-08-11T04:08:12.378Z,6.95
2022-08-11T04:10:54.906Z,7.35
2022-08-11T04:14:17.777Z,7.05
2022-08-11T04:16:53.440Z,7.25
2022-08-11T04:19:59.055Z,7.32
2022-08-11T04:22:51.571Z,7.78
2022-08-11T04:26:00.658Z,7.38
2022-08-11T04:29:17.082Z,7.68
2022-08-11T04:32:03.262Z,6.68
2022-08-11T04:34:50.065Z,8.23
2022-08-11T04:37:36.459Z,7.30
2022-08-11T04:40:06.846Z,6.32
2022-08-11T04:43:23.988Z,9.55
2022-08-11T04:46:06.947Z,6.72
2022-08-11T04:49:33.934Z,5.35
2022-08-11T04:52:58.072Z,5.22
2022-08-11T04:56:31.057Z,5.07
2022-08-11T04:59:39.832Z,4.45
2022-08-11T05:02:32.639Z,4.88
2022-08-11T05:05:34.260Z,4.33
2022-08-11T05:08:24.206Z,4.30
2022-08-11T05:11:16.144Z,3.88
2022-08-11T05:14:07.637Z,3.47
2022-08-11T05:17:13.780Z,4.07
2022-08-11T05:20:04.798Z,3.25
2022-08-11T05:22:52.675Z,3.47
2022-08-11T05:26:44.926Z,4.30
2022-08-11T05:29:20.125Z,3.65
2022-08-11T05:32:19.977Z,2.97
2022-08-11T05:34:52.947Z,3.40
2022-08-11T05:37:34.485Z,3.08
2022-08-11T05:40:30.078Z,2.72
2022-08-11T05:43:18.704Z,3.25
2022-08-11T05:46:18.796Z,3.20
2022-08-11T05:49:05.089Z,2.83
2022-08-11T05:52:05.873Z,3.13
2022-08-11T05:54:59.796Z,2.78
2022-08-11T06:00:19.935Z,2.58
2022-08-11T06:02:55.494Z,2.65
2022-08-11T06:05:38.573Z,2.65
2022-08-11T06:08:13.639Z,2.47
2022-08-11T06:10:45.833Z,2.55
2022-08-11T06:13:17.350Z,2.78
2022-08-11T06:15:50.234Z,2.38
2022-08-11T06:18:18.764Z,2.42
2022-08-11T06:20:48.227Z,2.25
2022-08-11T06:23:18.890Z,2.22
2022-08-11T06:25:47.014Z,2.42
2022-08-11T06:28:20.369Z,2.70
2022-08-11T06:30:49.314Z,2.17
2022-08-11T06:33:44.064Z,1.92
2022-08-11T06:36:49.463Z,2.13
2022-08-11T06:39:27.142Z,1.95
2022-08-11T06:42:06.263Z,1.90
2022-08-11T06:44:43.970Z,2.03
2022-08-11T06:47:12.846Z,2.10
2022-08-11T06:50:03.755Z,1.70
2022-08-11T06:52:35.872Z,2.15
2022-08-11T06:55:57.616Z,2.05
2022-08-11T06:58:22.910Z,1.85
2022-08-11T07:00:55.137Z,1.83
2022-08-11T07:03:23.794Z,2.45
2022-08-11T07:05:55.502Z,2.53
2022-08-11T07:09:03.078Z,1.88
2022-08-11T07:12:07.879Z,2.08
2022-08-11T07:15:00.356Z,1.90
2022-08-11T07:20:17.441Z,1.80
2022-08-11T07:23:10.226Z,1.92
2022-08-11T07:25:59.086Z,2.53
2022-08-11T07:28:47.518Z,1.83
2022-08-11T07:31:45.002Z,1.85
2022-08-11T07:34:18.804Z,1.92
2022-08-11T07:36:57.650Z,2.28
2022-08-11T07:39:44.856Z,1.85
2022-08-11T07:42:15.067Z,2.00
2022-08-11T07:45:02.110Z,2.20
2022-08-11T07:47:48.893Z,1.95
2022-08-11T07:50:36.480Z,2.13
2022-08-11T07:53:04.868Z,1.80
2022-08-11T07:55:51.195Z,1.98
2022-08-11T07:58:45.802Z,1.83
2022-08-11T08:01:43.263Z,1.80
2022-08-11T08:04:34.619Z,1.90
2022-08-11T08:07:22.884Z,1.75
2022-08-11T08:10:09.638Z,2.30
2022-08-11T08:13:00.732Z,1.98
2022-08-11T08:15:47.372Z,1.52
2022-08-11T08:18:27.091Z,1.75
2022-08-11T08:20:57.587Z,2.00
2022-08-11T08:23:33.995Z,1.77
2022-08-11T08:26:27.096Z,1.42
2022-08-11T08:29:20.743Z,1.67
2022-08-11T08:31:49.641Z,1.63
2022-08-11T08:34:17.863Z,1.20
2022-08-11T08:36:46.504Z,1.73
2022-08-11T08:39:14.758Z,1.50
2022-08-11T08:41:43.981Z,1.70
2022-08-11T08:47:01.277Z,2.25
2022-08-11T08:49:40.189Z,1.85
2022-08-11T08:52:25.178Z,1.70
2022-08-11T08:55:03.371Z,1.88
2022-08-11T08:57:39.194Z,1.80
2022-08-11T09:00:12.947Z,1.50
2022-08-11T09:02:45.247Z,1.55
2022-08-11T09:05:13.272Z,1.27
2022-08-11T09:07:42.043Z,1.75
2022-08-11T09:10:11.380Z,1.40
2022-08-11T09:12:42.731Z,1.50
2022-08-11T09:15:12.021Z,1.92
2022-08-11T09:17:42.525Z,1.35
2022-08-11T09:20:24.037Z,1.83
2022-08-11T09:26:22.868Z,1.48
2022-08-11T09:28:59.692Z,1.60
2022-08-11T09:31:34.610Z,1.60
2022-08-11T09:34:06.902Z,1.55
2022-08-11T09:36:53.091Z,2.17
2022-08-11T09:39:39.725Z,1.20
2022-08-11T09:42:11.235Z,1.20
2022-08-11T09:44:51.074Z,1.30
2022-08-11T09:47:30.642Z,1.30
2022-08-11T09:50:01.565Z,1.40
2022-08-11T09:52:33.131Z,1.08
2022-08-11T09:55:01.624Z,1.20
2022-08-11T09:57:48.304Z,0.88
2022-08-11T10:00:16.594Z,1.13
2022-08-11T10:02:46.739Z,1.10
2022-08-11T10:05:36.496Z,0.80
2022-08-11T10:08:05.470Z,1.13
2022-08-11T10:10:36.718Z,1.10
2022-08-11T10:13:43.994Z,1.00
2022-08-11T10:16:00.132Z,1.02
2022-08-11T10:18:54.530Z,0.90
2022-08-11T10:21:43.310Z,1.02
2022-08-11T10:24:29.641Z,0.90
2022-08-11T10:27:02.923Z,1.00
2022-08-11T10:29:51.131Z,1.17
2022-08-11T10:32:58.967Z,0.85
2022-08-11T10:35:32.344Z,0.80
2022-08-11T10:38:08.911Z,1.05
2022-08-11T10:40:41.431Z,1.17
2022-08-11T10:43:56.756Z,1.15
2022-08-11T10:46:29.848Z,1.30
2022-08-11T10:48:59.219Z,1.50
2022-08-11T10:51:51.536Z,1.30
2022-08-11T10:54:40.740Z,1.10
2022-08-11T10:57:32.237Z,1.13
2022-08-11T11:00:00.118Z,1.10
2022-08-11T11:02:28.681Z,1.33
2022-08-11T11:05:09.938Z,1.20
2022-08-11T11:07:51.053Z,1.20
2022-08-11T11:10:18.873Z,0.80
2022-08-11T11:13:06.681Z,1.05
2022-08-11T11:15:55.412Z,1.00
2022-08-11T11:18:26.281Z,1.00
2022-08-11T11:21:14.832Z,0.90
2022-08-11T11:24:01.889Z,1.00
2022-08-11T11:26:43.993Z,0.80
2022-08-11T11:29:25.465Z,1.00
2022-08-11T11:32:23.501Z,0.90
2022-08-11T11:35:13.730Z,1.00
2022-08-11T11:38:04.397Z,1.00
2022-08-11T11:40:31.872Z,1.25
2022-08-11T11:43:00.418Z,1.17
2022-08-11T11:45:28.350Z,1.00
2022-08-11T11:47:59.303Z,1.10
2022-08-11T11:50:34.830Z,0.90
2022-08-11T11:53:05.481Z,0.80
2022-08-11T11:55:32.970Z,1.27
2022-08-11T11:58:20.460Z,0.98
2022-08-11T12:01:09.741Z,0.85
2022-08-11T12:03:38.199Z,0.80
2022-08-11T12:06:08.098Z,1.02
2022-08-11T12:08:37.764Z,0.90
2022-08-11T12:11:26.727Z,0.80
2022-08-11T12:13:54.595Z,0.80
2022-08-11T12:16:33.125Z,1.10
2022-08-11T12:19:11.989Z,1.05
2022-08-11T12:22:01.223Z,1.00
2022-08-11T12:24:49.475Z,0.90
2022-08-11T12:27:28.577Z,0.90
2022-08-11T12:29:58.870Z,0.77
2022-08-11T12:32:29.432Z,1.00
2022-08-11T12:34:58.138Z,1.20
2022-08-11T12:37:35.545Z,1.00
2022-08-11T12:40:42.957Z,0.98
2022-08-11T12:43:38.652Z,1.00
2022-08-11T12:46:20.769Z,0.98
2022-08-11T12:49:08.629Z,1.10
2022-08-11T12:52:11.502Z,0.80
2022-08-11T12:54:50.420Z,0.88
2022-08-11T12:57:57.283Z,0.90
2022-08-11T13:00:44.954Z,1.05
2022-08-11T13:03:32.904Z,1.00
2022-08-11T13:06:03.008Z,0.82
2022-08-11T13:08:33.785Z,1.10
2022-08-11T13:11:20.714Z,1.02
2022-08-11T13:13:54.168Z,1.35
2022-08-11T13:16:31.566Z,0.93
2022-08-11T13:19:01.024Z,1.02
2022-08-11T13:21:29.294Z,1.10
2022-08-11T13:24:01.885Z,1.02
2022-08-11T13:26:41.613Z,1.13
2022-08-11T13:29:21.276Z,0.90
2022-08-11T13:31:49.876Z,1.08
2022-08-11T13:34:18.192Z,1.20
2022-08-11T13:36:52.541Z,0.90
2022-08-11T13:39:24.608Z,1.10
2022-08-11T13:41:55.298Z,1.30
2022-08-11T13:44:26.031Z,1.10
2022-08-11T13:46:56.695Z,1.05
2022-08-11T13:49:24.847Z,1.05
2022-08-11T13:51:53.494Z,0.85
2022-08-11T13:54:30.667Z,1.02
2022-08-11T13:57:02.596Z,0.90
2022-08-11T13:59:31.188Z,0.90
2022-08-11T14:02:22.825Z,1.00
2022-08-11T14:04:58.213Z,1.20
2022-08-11T14:07:34.794Z,0.90
2022-08-11T14:10:04.535Z,1.00
2022-08-11T14:12:53.601Z,0.85
2022-08-11T14:15:25.389Z,0.90
2022-08-11T14:18:03.475Z,1.15
2022-08-11T14:20:54.666Z,1.13
2022-08-11T14:23:28.435Z,1.10
2022-08-11T14:26:15.488Z,1.00
2022-08-11T14:28:44.972Z,1.20
2022-08-11T14:31:15.205Z,1.20
2022-08-11T14:34:01.114Z,1.10
2022-08-11T14:36:36.346Z,1.00
2022-08-11T14:39:08.042Z,1.02
2022-08-11T14:42:11.356Z,1.10
2022-08-11T14:45:04.522Z,1.10
2022-08-11T14:47:37.528Z,1.33
2022-08-11T14:50:12.124Z,1.20
2022-08-11T14:52:48.189Z,1.10
2022-08-11T14:55:34.041Z,1.15
2022-08-11T14:58:02.681Z,1.00
2022-08-11T15:00:31.416Z,1.02
2022-08-11T15:03:12.401Z,0.98
2022-08-11T15:05:57.003Z,1.30
2022-08-11T15:08:52.603Z,1.45
2022-08-11T15:11:41.645Z,1.58
2022-08-11T15:14:10.892Z,1.38
2022-08-11T15:17:00.599Z,1.20
2022-08-11T15:19:30.221Z,1.27
2022-08-11T15:22:29.163Z,1.30
2022-08-11T15:24:59.215Z,1.30
2022-08-11T15:27:47.850Z,1.40
2022-08-11T15:30:34.391Z,1.20
2022-08-11T15:33:23.955Z,1.35
2022-08-11T15:36:11.384Z,1.58
2022-08-11T15:39:04.689Z,1.40
2022-08-11T15:41:59.045Z,1.67
2022-08-11T15:45:03.159Z,1.48
2022-08-11T15:47:37.743Z,1.30
2022-08-11T15:50:11.361Z,1.20
2022-08-11T15:53:00.826Z,1.50
2022-08-11T15:55:31.094Z,1.60
2022-08-11T15:58:18.631Z,1.23
2022-08-11T16:01:09.289Z,1.23
2022-08-11T16:04:07.451Z,1.80
2022-08-11T16:06:49.239Z,1.40
2022-08-11T16:10:00.066Z,1.75
2022-08-11T16:12:33.252Z,1.48
2022-08-11T16:15:21.549Z,1.50
2022-08-11T16:17:52.932Z,1.35
2022-08-11T16:20:24.207Z,2.05
2022-08-11T16:23:01.335Z,1.33
2022-08-11T16:27:02.992Z,1.60
2022-08-11T16:28:20.935Z,1.85
2022-08-11T16:30:48.851Z,1.17
2022-08-11T16:33:22.571Z,1.55
2022-08-11T16:36:24.294Z,1.67
2022-08-11T16:38:53.402Z,1.45
2022-08-11T16:41:43.394Z,1.40
2022-08-11T16:44:37.036Z,1.60
2022-08-11T16:47:11.248Z,1.73
2022-08-11T16:49:52.461Z,1.40
2022-08-11T16:52:22.660Z,1.60
2022-08-11T16:54:50.468Z,1.52
2022-08-11T16:57:44.011Z,1.30
2022-08-11T17:00:15.136Z,1.60
2022-08-11T17:03:04.080Z,1.60
2022-08-11T17:05:54.697Z,1.30
2022-08-11T17:08:56.946Z,1.55
2022-08-11T17:11:53.260Z,1.55
2022-08-11T17:14:35.691Z,1.88
2022-08-11T17:17:16.372Z,1.70
2022-08-11T17:20:40.818Z,1.50
2022-08-11T17:23:02.518Z,1.38
2022-08-11T17:25:59.349Z,1.63
2022-08-11T17:28:20.827Z,3.13
2022-08-11T17:31:22.276Z,2.22
2022-08-11T17:34:10.731Z,2.58
2022-08-11T17:36:44.529Z,2.13
2022-08-11T17:39:13.956Z,2.13
2022-08-11T17:42:00.685Z,2.25
2022-08-11T17:44:47.687Z,1.80
2022-08-11T17:47:33.884Z,2.92
2022-08-11T17:50:09.248Z,2.17
2022-08-11T17:53:02.613Z,1.90
2022-08-11T17:55:51.550Z,1.52
2022-08-11T17:58:39.628Z,1.80
2022-08-11T18:01:09.833Z,1.80
2022-08-11T18:03:40.173Z,2.10
2022-08-11T18:06:12.311Z,2.40
2022-08-11T18:09:03.360Z,1.90
2022-08-11T18:12:10.312Z,1.90
2022-08-11T18:14:59.153Z,1.77
2022-08-11T18:17:45.839Z,2.28
2022-08-11T18:20:31.770Z,2.92
2022-08-11T18:23:18.556Z,2.90
2022-08-11T18:26:06.489Z,3.97
2022-08-11T18:29:06.822Z,3.97
2022-08-11T18:31:55.489Z,3.90
2022-08-11T18:34:49.429Z,2.90
2022-08-11T18:37:44.271Z,2.72
2022-08-11T18:40:35.594Z,3.10
2022-08-11T18:43:27.199Z,3.17
2022-08-11T18:46:20.151Z,2.75
2022-08-11T18:49:15.623Z,2.73
2022-08-11T18:52:09.834Z,3.80
2022-08-11T18:57:49.702Z,4.05
2022-08-11T19:00:42.383Z,3.90
2022-08-11T19:03:48.464Z,3.65
2022-08-11T19:06:40.525Z,3.28
2022-08-11T19:09:31.488Z,4.00
2022-08-11T19:12:18.348Z,3.60
2022-08-11T19:15:05.525Z,6.65
2022-08-11T19:17:53.465Z,4.78
2022-08-11T19:20:42.269Z,3.50
2022-08-11T19:23:30.531Z,3.90
2022-08-11T19:26:18.092Z,3.50
2022-08-11T19:29:06.428Z,3.72
2022-08-11T19:31:54.362Z,3.28
2022-08-11T19:34:42.286Z,3.20
2022-08-11T19:37:30.376Z,3.42
2022-08-11T19:40:23.503Z,3.20
2022-08-11T19:43:18.666Z,4.35
2022-08-11T19:46:15.915Z,3.80
2022-08-11T19:49:07.279Z,5.10
2022-08-11T19:51:54.935Z,4.50
2022-08-11T19:54:47.068Z,4.65
2022-08-11T19:57:39.308Z,4.25
2022-08-11T20:00:33.709Z,3.83
2022-08-11T20:03:22.334Z,3.15
2022-08-11T20:06:09.634Z,4.18
2022-08-11T20:08:58.825Z,4.10
2022-08-11T20:11:50.871Z,4.38
2022-08-11T20:14:39.467Z,3.90
2022-08-11T20:17:26.679Z,3.65
2022-08-11T20:20:12.605Z,3.78
2022-08-11T20:22:59.699Z,4.28
2022-08-11T20:25:46.425Z,3.88
2022-08-11T20:28:33.245Z,3.90
2022-08-11T20:31:19.361Z,3.70
2022-08-11T20:34:05.865Z,3.88
2022-08-11T20:36:56.423Z,4.00
2022-08-11T20:39:43.565Z,4.10
2022-08-11T20:42:31.247Z,4.10
2022-08-11T20:45:23.470Z,4.38
2022-08-11T20:48:15.269Z,4.00
2022-08-11T20:51:06.315Z,4.18
2022-08-11T20:53:59.099Z,4.05
2022-08-11T20:56:54.260Z,4.10
2022-08-11T20:59:50.188Z,4.40
2022-08-11T21:02:44.568Z,4.20
2022-08-11T21:06:08.482Z,3.90
2022-08-11T21:08:44.732Z,3.85
2022-08-11T21:14:19.541Z,4.15
2022-08-11T21:17:27.521Z,4.38
2022-08-11T21:20:20.849Z,4.60
2022-08-11T21:23:23.618Z,4.25
2022-08-11T21:26:16.854Z,4.70
2022-08-11T21:29:04.224Z,4.18
2022-08-11T21:31:51.797Z,4.32
2022-08-11T21:34:40.508Z,5.07
2022-08-11T21:37:28.649Z,4.30
2022-08-11T21:40:17.837Z,4.55
2022-08-11T21:43:06.058Z,4.18
2022-08-11T21:45:54.721Z,4.30
2022-08-11T21:48:43.096Z,4.53
2022-08-11T21:51:29.029Z,4.10
2022-08-11T21:54:19.735Z,4.00
2022-08-11T21:57:06.375Z,3.97
2022-08-11T22:00:04.715Z,4.18
2022-08-11T22:03:01.714Z,4.65
2022-08-11T22:05:51.860Z,4.78
2022-08-11T22:08:38.493Z,4.68
2022-08-11T22:11:32.004Z,3.80
2022-08-11T22:14:20.143Z,3.85
2022-08-11T22:17:06.020Z,4.00
2022-08-11T22:19:53.202Z,4.10
2022-08-11T22:22:52.324Z,3.90
2022-08-11T22:25:55.077Z,4.15
2022-08-11T22:28:46.177Z,4.05
2022-08-11T22:31:32.368Z,3.40
2022-08-11T22:34:18.683Z,4.47
2022-08-11T22:37:07.267Z,4.03
2022-08-11T22:39:59.742Z,4.20
2022-08-11T22:42:52.535Z,4.40
2022-08-11T22:45:39.270Z,4.20
2022-08-11T22:48:26.815Z,4.28
2022-08-11T22:51:14.142Z,4.18
2022-08-11T22:54:00.638Z,4.00
2022-08-11T22:56:48.678Z,4.55
2022-08-11T22:59:38.025Z,4.20
2022-08-11T23:02:25.520Z,4.50
2022-08-11T23:05:11.597Z,4.47
2022-08-11T23:07:57.799Z,4.43
2022-08-11T23:10:44.871Z,4.68
2022-08-11T23:13:31.915Z,4.65
2022-08-11T23:16:18.106Z,4.88
2022-08-11T23:19:04.856Z,4.88
2022-08-11T23:21:51.566Z,5.07
2022-08-11T23:24:39.985Z,4.57
2022-08-11T23:27:27.935Z,4.90
2022-08-11T23:30:17.316Z,5.10
2022-08-11T23:33:08.129Z,4.57
2022-08-11T23:35:59.526Z,6.55
2022-08-11T23:38:48.359Z,4.95
2022-08-11T23:41:34.763Z,5.35
2022-08-11T23:44:21.542Z,4.30
2022-08-11T23:47:09.036Z,4.20
2022-08-11T23:49:55.920Z,4.60
2022-08-11T23:52:44.807Z,4.68
2022-08-11T23:55:31.260Z,4.82
2022-08-11T23:58:17.632Z,4.40
